Time;durP1;ratioP1;P1;durP2;ratioP2;P2;SDS_P1;SDS_P2;PMS_P1;PMS_P2;Temp;Humidity;BMP_temperature;BMP_pressure;BME280_temperature;BME280_humidity;BME280_pressure;Samples;Min_cycle;Max_cycle;Signal;HPM_P1;HPM_P2
2021/03/05 00:00:33;;;;;;;21.23;11.52;;;7.90;99.90;;;;;;5009704;28;20548;-74
2021/03/05 00:02:59;;;;;;;25.23;13.07;;;7.80;99.90;;;;;;5014097;28;20053;-74
2021/03/05 00:05:25;;;;;;;26.40;14.38;;;7.60;99.90;;;;;;5011846;28;20042;-76
2021/03/05 00:07:51;;;;;;;27.02;15.35;;;7.30;99.90;;;;;;5012409;28;20073;-76
2021/03/05 00:10:20;;;;;;;27.83;15.75;;;7.30;99.90;;;;;;5014445;28;20079;-74
2021/03/05 00:12:45;;;;;;;25.77;12.68;;;7.20;99.90;;;;;;5013625;28;20501;-75
2021/03/05 00:15:11;;;;;;;22.08;12.82;;;7.10;99.90;;;;;;5013266;28;20037;-76
2021/03/05 00:17:38;;;;;;;22.90;12.93;;;7.10;99.90;;;;;;5006265;28;20042;-75
2021/03/05 00:20:11;;;;;;;19.95;11.73;;;7.00;99.90;;;;;;5011517;28;20044;-76
2021/03/05 00:22:37;;;;;;;27.10;14.23;;;6.70;99.90;;;;;;5011516;28;20045;-76
2021/03/05 00:25:03;;;;;;;25.30;14.68;;;6.70;99.90;;;;;;5011013;28;20037;-75
2021/03/05 00:27:29;;;;;;;32.97;15.75;;;6.60;99.90;;;;;;5011612;28;20041;-76
2021/03/05 00:29:54;;;;;;;38.78;18.60;;;6.50;99.90;;;;;;5010342;28;20062;-76
2021/03/05 00:32:20;;;;;;;39.45;19.58;;;6.40;99.90;;;;;;5013344;28;20064;-76
2021/03/05 00:34:45;;;;;;;37.97;19.75;;;6.40;99.90;;;;;;5009587;28;20049;-75
2021/03/05 00:37:11;;;;;;;41.20;19.35;;;6.30;99.90;;;;;;5013005;28;20060;-76
2021/03/05 00:39:37;;;;;;;46.28;22.25;;;6.30;99.90;;;;;;5010339;28;20121;-73
2021/03/05 00:42:04;;;;;;;41.60;21.70;;;6.10;99.90;;;;;;5008045;28;20084;-76
2021/03/05 00:44:30;;;;;;;42.92;21.30;;;6.10;99.90;;;;;;5009667;28;20375;-74
2021/03/05 00:46:56;;;;;;;43.42;21.50;;;5.90;99.90;;;;;;5007733;28;20037;-77
2021/03/05 00:49:21;;;;;;;45.83;22.52;;;5.90;99.90;;;;;;5008127;28;20037;-74
2021/03/05 00:51:47;;;;;;;39.65;20.25;;;5.90;99.90;;;;;;5005437;28;20030;-76
2021/03/05 00:54:12;;;;;;;43.67;22.63;;;5.90;99.90;;;;;;5007596;28;20131;-76
2021/03/05 00:56:38;;;;;;;47.63;22.63;;;5.70;99.90;;;;;;5006929;28;20029;-74
2021/03/05 00:59:03;;;;;;;49.67;23.77;;;5.60;99.90;;;;;;5006657;28;20443;-76
2021/03/05 01:01:29;;;;;;;52.92;23.92;;;5.70;99.90;;;;;;5006792;28;20131;-76
2021/03/05 01:03:55;;;;;;;53.50;25.42;;;5.60;99.90;;;;;;5007132;28;20112;-77
2021/03/05 01:06:20;;;;;;;58.78;24.73;;;5.40;99.90;;;;;;5007156;28;21007;-76
2021/03/05 01:08:46;;;;;;;56.03;24.42;;;5.40;99.90;;;;;;5004589;28;20049;-76
2021/03/05 01:11:11;;;;;;;59.50;26.10;;;5.30;99.90;;;;;;5005022;28;20518;-76
2021/03/05 01:13:37;;;;;;;60.08;27.23;;;5.30;99.90;;;;;;5005014;28;20041;-74
2021/03/05 01:16:02;;;;;;;58.58;27.20;;;5.30;99.90;;;;;;5005462;28;20037;-76
2021/03/05 01:18:28;;;;;;;68.30;27.65;;;5.20;99.90;;;;;;5005602;28;20113;-76
2021/03/05 01:20:53;;;;;;;56.35;24.85;;;5.10;99.90;;;;;;5004408;28;20037;-76
2021/03/05 01:23:20;;;;;;;70.00;29.58;;;5.00;99.90;;;;;;5003196;28;20155;-75
2021/03/05 01:25:45;;;;;;;62.72;27.00;;;5.00;99.90;;;;;;5003096;28;20052;-77
2021/03/05 01:28:12;;;;;;;61.72;27.40;;;4.80;99.90;;;;;;5002727;28;20135;-76
2021/03/05 01:30:38;;;;;;;71.80;28.92;;;4.80;99.90;;;;;;5003271;28;20037;-77
2021/03/05 01:33:04;;;;;;;67.72;27.23;;;4.70;99.90;;;;;;5003205;28;20037;-74
2021/03/05 01:35:30;;;;;;;64.85;24.17;;;4.70;99.90;;;;;;5003123;28;20413;-76
2021/03/05 01:37:56;;;;;;;70.53;26.90;;;4.70;99.90;;;;;;5001877;28;20048;-74
2021/03/05 01:40:31;;;;;;;71.03;28.92;;;4.60;99.90;;;;;;5001305;28;20437;-74
2021/03/05 01:42:57;;;;;;;69.60;29.10;;;4.70;99.90;;;;;;5000263;28;20123;-74
2021/03/05 01:45:29;;;;;;;72.28;29.25;;;4.70;99.90;;;;;;4999676;28;20140;-76
2021/03/05 01:48:00;;;;;;;66.38;26.73;;;4.70;99.90;;;;;;5009088;28;20041;-74
2021/03/05 01:50:30;;;;;;;74.60;28.83;;;4.60;99.90;;;;;;5016083;28;20037;-74
2021/03/05 01:52:59;;;;;;;76.63;27.75;;;4.60;99.90;;;;;;5014133;28;20564;-76
2021/03/05 01:55:25;;;;;;;72.72;27.20;;;4.50;99.90;;;;;;5015344;28;20045;-77
2021/03/05 01:57:51;;;;;;;85.65;30.65;;;4.40;99.90;;;;;;5014150;28;20454;-76
2021/03/05 02:00:20;;;;;;;81.07;31.10;;;4.40;99.90;;;;;;5014664;28;20499;-76
2021/03/05 02:02:46;;;;;;;83.03;29.80;;;4.40;99.90;;;;;;5014404;28;20041;-77
2021/03/05 02:05:12;;;;;;;78.32;30.88;;;4.40;99.90;;;;;;5013135;28;20537;-76
2021/03/05 02:07:38;;;;;;;87.53;31.08;;;4.40;99.90;;;;;;5021184;28;20029;-76
2021/03/05 02:10:06;;;;;;;80.72;31.63;;;4.50;99.90;;;;;;5022667;28;20034;-76
2021/03/05 02:12:32;;;;;;;82.25;30.73;;;4.50;99.90;;;;;;5011837;28;20045;-76
2021/03/05 02:14:57;;;;;;;78.68;30.80;;;4.40;99.90;;;;;;5009852;28;20076;-76
2021/03/05 02:17:31;;;;;;;78.05;30.35;;;4.40;99.90;;;;;;5013878;28;20048;-77
2021/03/05 02:20:23;;;;;;;83.40;32.25;;;4.40;99.90;;;;;;5014885;28;20083;-77
2021/03/05 02:23:13;;;;;;;75.50;29.48;;;4.40;99.90;;;;;;5010912;28;20136;-76
2021/03/05 02:26:03;;;;;;;79.28;28.75;;;4.40;99.90;;;;;;5012660;28;20041;-76
2021/03/05 02:29:03;;;;;;;78.60;29.45;;;4.40;99.90;;;;;;5009860;28;20711;-76
2021/03/05 02:31:55;;;;;;;69.82;26.05;;;4.40;99.90;;;;;;5008258;28;20080;-76
2021/03/05 02:34:24;;;;;;;82.32;29.17;;;4.40;99.90;;;;;;5009166;28;20038;-75
2021/03/05 02:36:54;;;;;;;79.60;28.17;;;4.40;99.90;;;;;;5007269;28;20157;-75
2021/03/05 02:39:27;;;;;;;71.93;27.52;;;4.40;99.90;;;;;;5009100;28;20552;-76
2021/03/05 02:41:58;;;;;;;68.70;26.88;;;4.40;99.90;;;;;;5007963;28;20494;-76
2021/03/05 02:44:27;;;;;;;73.20;27.48;;;4.40;99.90;;;;;;5008456;28;20478;-76
2021/03/05 02:47:01;;;;;;;78.45;27.95;;;4.40;99.90;;;;;;5007537;28;20033;-75
2021/03/05 02:49:32;;;;;;;63.42;25.85;;;4.50;99.90;;;;;;5007903;28;20517;-76
2021/03/05 02:52:04;;;;;;;61.65;25.55;;;4.30;99.90;;;;;;5005436;28;20493;-76
2021/03/05 02:54:31;;;;;;;64.45;24.92;;;4.30;99.90;;;;;;5004629;28;20033;-76
2021/03/05 02:56:58;;;;;;;63.03;26.35;;;4.30;99.90;;;;;;5004933;28;20048;-76
2021/03/05 02:59:25;;;;;;;68.55;26.17;;;4.30;99.90;;;;;;5006178;28;20089;-76
2021/03/05 03:01:52;;;;;;;70.45;25.98;;;4.30;99.90;;;;;;5004453;28;20049;-75
2021/03/05 03:04:20;;;;;;;67.63;26.00;;;4.20;99.90;;;;;;5005001;28;20509;-75
2021/03/05 03:06:45;;;;;;;66.05;25.58;;;4.20;99.90;;;;;;5004157;28;20212;-74
2021/03/05 03:09:14;;;;;;;68.13;26.38;;;4.30;99.90;;;;;;5004618;28;20030;-75
2021/03/05 03:11:43;;;;;;;64.63;25.60;;;4.30;99.90;;;;;;5001984;28;20052;-74
2021/03/05 03:14:10;;;;;;;68.57;26.42;;;4.30;99.90;;;;;;5002518;28;20550;-75
2021/03/05 03:16:38;;;;;;;75.25;26.25;;;4.20;99.90;;;;;;5002030;28;20260;-77
2021/03/05 03:19:08;;;;;;;66.72;24.98;;;4.20;99.90;;;;;;5001350;28;20038;-76
2021/03/05 03:21:35;;;;;;;68.82;24.95;;;4.20;99.90;;;;;;5016087;28;20152;-75
2021/03/05 03:24:01;;;;;;;65.72;26.48;;;4.20;99.90;;;;;;5001349;28;20140;-76
2021/03/05 03:26:26;;;;;;;59.22;24.92;;;4.20;99.90;;;;;;5000018;28;20460;-75
2021/03/05 03:28:52;;;;;;;64.20;24.50;;;4.20;99.90;;;;;;5000377;28;20026;-75
2021/03/05 03:31:18;;;;;;;62.67;25.42;;;4.10;99.90;;;;;;5000351;28;20080;-75
2021/03/05 03:33:45;;;;;;;67.45;24.75;;;4.20;99.90;;;;;;5002234;28;20041;-74
2021/03/05 03:36:12;;;;;;;63.88;25.08;;;4.20;99.90;;;;;;5013813;28;20121;-75
2021/03/05 03:38:39;;;;;;;57.08;25.05;;;4.20;99.90;;;;;;5010888;28;20087;-74
2021/03/05 03:41:04;;;;;;;57.63;24.48;;;4.20;99.90;;;;;;5009383;28;20037;-75
2021/03/05 03:43:30;;;;;;;64.25;24.45;;;4.20;99.90;;;;;;5012331;28;20571;-77
2021/03/05 03:45:56;;;;;;;64.25;24.88;;;4.20;99.90;;;;;;5007510;28;20582;-74
2021/03/05 03:48:22;;;;;;;52.85;23.27;;;4.30;99.90;;;;;;5006389;28;20037;-74
2021/03/05 03:51:01;;;;;;;57.63;24.00;;;4.30;99.90;;;;;;5009235;28;20131;-75
2021/03/05 03:53:29;;;;;;;60.53;24.85;;;4.30;99.90;;;;;;5010224;28;20045;-75
2021/03/05 03:55:55;;;;;;;52.17;24.00;;;4.30;99.90;;;;;;5008466;28;20037;-75
2021/03/05 03:58:31;;;;;;;56.65;22.23;;;4.30;99.90;;;;;;5011107;28;20405;-77
2021/03/05 04:01:02;;;;;;;52.60;22.77;;;4.20;99.90;;;;;;5010556;28;20403;-75
2021/03/05 04:03:31;;;;;;;46.47;21.67;;;4.20;99.90;;;;;;5010075;28;20037;-75
2021/03/05 04:05:58;;;;;;;46.35;20.30;;;4.20;99.90;;;;;;5013619;28;20049;-74
2021/03/05 04:08:25;;;;;;;48.05;22.35;;;4.10;99.90;;;;;;5013156;28;20482;-76
2021/03/05 04:10:51;;;;;;;42.80;20.27;;;4.10;99.90;;;;;;5014802;28;20037;-76
2021/03/05 04:13:18;;;;;;;46.60;19.70;;;4.10;99.90;;;;;;5040251;23;20056;-74
2021/03/05 04:15:44;;;;;;;41.28;19.52;;;4.10;99.90;;;;;;5046816;28;20155;-74
2021/03/05 04:18:09;;;;;;;38.25;18.38;;;4.10;99.90;;;;;;5039163;28;20036;-74
2021/03/05 04:20:41;;;;;;;37.05;19.63;;;4.10;99.90;;;;;;5049482;28;20043;-75
2021/03/05 04:23:07;;;;;;;37.80;18.02;;;4.00;99.90;;;;;;5033024;28;20048;-74
2021/03/05 04:25:33;;;;;;;37.25;19.02;;;3.90;99.90;;;;;;5020654;28;20461;-73
2021/03/05 04:27:58;;;;;;;39.72;19.45;;;4.00;99.90;;;;;;5022361;28;20041;-74
2021/03/05 04:30:25;;;;;;;40.63;19.73;;;3.90;99.90;;;;;;5022725;28;20033;-74
2021/03/05 04:32:50;;;;;;;42.03;18.90;;;4.00;99.90;;;;;;5023176;28;20581;-74
2021/03/05 04:35:16;;;;;;;43.90;20.77;;;4.00;99.90;;;;;;5022905;28;20033;-74
2021/03/05 04:37:42;;;;;;;38.33;19.17;;;3.90;99.90;;;;;;5022701;28;20041;-74
2021/03/05 04:40:10;;;;;;;39.65;18.73;;;3.90;99.90;;;;;;5024143;28;20057;-75
2021/03/05 04:42:36;;;;;;;40.63;18.60;;;4.00;99.90;;;;;;5023117;28;20041;-74
2021/03/05 04:45:03;;;;;;;31.77;17.77;;;3.90;99.90;;;;;;5023823;28;20585;-74
2021/03/05 04:47:29;;;;;;;41.20;19.98;;;4.00;99.90;;;;;;5022103;28;20037;-74
2021/03/05 04:49:55;;;;;;;34.65;18.25;;;4.00;99.90;;;;;;5022176;28;20038;-74
2021/03/05 04:52:20;;;;;;;37.90;19.10;;;3.90;99.90;;;;;;5023646;28;20499;-74
2021/03/05 04:54:46;;;;;;;39.70;19.05;;;3.90;99.90;;;;;;5023719;28;20037;-74
2021/03/05 04:57:11;;;;;;;37.85;19.05;;;4.00;99.90;;;;;;5024007;28;20099;-74
2021/03/05 04:59:37;;;;;;;40.78;19.10;;;4.00;99.90;;;;;;5020746;28;20132;-74
2021/03/05 05:02:03;;;;;;;35.67;18.45;;;4.10;99.90;;;;;;5023090;28;20065;-74
2021/03/05 05:04:28;;;;;;;33.75;17.90;;;4.10;99.90;;;;;;5023997;28;20041;-74
2021/03/05 05:06:54;;;;;;;39.45;18.73;;;4.00;99.90;;;;;;5022041;28;20094;-74
2021/03/05 05:09:20;;;;;;;36.80;18.27;;;4.10;99.90;;;;;;5023214;28;20033;-74
2021/03/05 05:11:46;;;;;;;37.50;18.88;;;4.00;99.90;;;;;;5039732;28;20137;-74
2021/03/05 05:14:12;;;;;;;40.40;18.90;;;4.10;99.90;;;;;;5027121;28;20037;-74
2021/03/05 05:16:38;;;;;;;34.95;17.55;;;4.00;99.90;;;;;;5022679;28;20448;-74
2021/03/05 05:19:04;;;;;;;43.33;20.70;;;4.00;99.90;;;;;;5026408;28;20049;-74
2021/03/05 05:21:29;;;;;;;38.08;19.27;;;4.00;99.90;;;;;;5027672;28;20083;-74
2021/03/05 05:23:55;;;;;;;36.88;18.65;;;4.00;99.90;;;;;;5023430;28;20037;-74
2021/03/05 05:26:20;;;;;;;37.17;18.08;;;4.10;99.90;;;;;;5020072;28;20037;-74
2021/03/05 05:28:46;;;;;;;34.95;16.92;;;4.00;99.90;;;;;;5017215;28;20061;-73
2021/03/05 05:31:12;;;;;;;36.00;17.05;;;4.10;99.90;;;;;;5020626;28;20567;-74
2021/03/05 05:33:37;;;;;;;36.13;17.38;;;4.10;99.90;;;;;;5020907;28;20025;-74
2021/03/05 05:36:03;;;;;;;35.97;18.13;;;4.00;99.90;;;;;;5017281;28;20049;-74
2021/03/05 05:38:28;;;;;;;37.80;17.98;;;4.10;99.90;;;;;;5020458;28;20094;-74
2021/03/05 05:40:58;;;;;;;36.63;17.50;;;4.00;99.90;;;;;;5021395;28;20041;-74
2021/03/05 05:43:30;;;;;;;33.58;16.60;;;4.10;99.90;;;;;;5022531;28;20052;-74
2021/03/05 05:46:02;;;;;;;37.00;17.30;;;4.00;99.90;;;;;;5017672;28;20033;-74
2021/03/05 05:48:28;;;;;;;32.33;16.33;;;4.00;99.90;;;;;;5021871;28;20516;-74
2021/03/05 05:50:56;;;;;;;37.17;16.38;;;4.00;99.90;;;;;;5006625;28;20098;-74
2021/03/05 05:53:22;;;;;;;35.63;16.50;;;4.00;99.90;;;;;;5038762;28;20042;-74
2021/03/05 05:55:48;;;;;;;40.90;17.13;;;4.00;99.90;;;;;;5021501;28;20086;-74
2021/03/05 05:58:15;;;;;;;36.42;16.15;;;4.00;99.90;;;;;;5022269;28;20046;-74
2021/03/05 06:00:40;;;;;;;33.47;15.43;;;4.00;99.90;;;;;;5021621;28;20037;-74
2021/03/05 06:03:07;;;;;;;40.97;16.02;;;4.00;99.90;;;;;;5023447;28;20048;-73
2021/03/05 06:05:33;;;;;;;34.00;16.23;;;4.00;99.90;;;;;;5022729;28;20765;-73
2021/03/05 06:07:59;;;;;;;35.00;15.82;;;4.00;99.90;;;;;;5022178;28;20041;-74
2021/03/05 06:10:24;;;;;;;35.33;16.15;;;4.00;99.90;;;;;;5017833;28;20064;-74
2021/03/05 06:12:50;;;;;;;41.47;19.10;;;3.90;99.90;;;;;;5017282;28;20498;-74
2021/03/05 06:15:20;;;;;;;39.40;17.95;;;3.90;99.90;;;;;;5014622;28;20041;-77
2021/03/05 06:17:48;;;;;;;34.50;16.75;;;3.90;99.90;;;;;;5015748;28;20037;-74
2021/03/05 06:20:15;;;;;;;47.60;17.98;;;3.90;99.90;;;;;;5015611;28;20047;-74
2021/03/05 06:22:42;;;;;;;42.50;17.98;;;3.80;99.90;;;;;;5016227;28;20076;-74
2021/03/05 06:25:09;;;;;;;38.60;17.23;;;3.80;99.90;;;;;;5018830;28;20037;-73
2021/03/05 06:27:38;;;;;;;38.08;16.75;;;3.80;99.90;;;;;;5016678;28;20410;-74
2021/03/05 06:30:04;;;;;;;38.50;17.65;;;3.80;99.90;;;;;;5023353;28;20077;-74
2021/03/05 06:32:48;;;;;;;41.88;18.00;;;3.90;99.90;;;;;;5017609;28;20033;-75
2021/03/05 06:35:23;;;;;;;37.33;17.23;;;3.90;99.90;;;;;;5018579;28;20308;-74
2021/03/05 06:37:49;;;;;;;38.70;17.20;;;3.90;99.90;;;;;;5019605;28;20048;-75
2021/03/05 06:40:15;;;;;;;39.95;16.95;;;3.90;99.90;;;;;;5021811;28;20041;-75
2021/03/05 06:42:48;;;;;;;40.55;17.00;;;3.90;99.90;;;;;;5039643;28;20136;-74
2021/03/05 06:45:15;;;;;;;39.20;17.13;;;3.90;99.90;;;;;;5021014;28;20464;-75
2021/03/05 06:48:05;;;;;;;41.03;17.38;;;3.90;99.90;;;;;;5020233;28;20111;-75
2021/03/05 06:50:35;;;;;;;43.25;18.27;;;3.90;99.90;;;;;;5025244;28;20034;-75
2021/03/05 06:53:18;;;;;;;40.28;17.10;;;4.00;99.90;;;;;;5019259;28;20576;-75
2021/03/05 06:55:44;;;;;;;43.25;16.73;;;3.90;99.90;;;;;;5017519;28;20053;-75
2021/03/05 06:58:09;;;;;;;36.75;15.77;;;3.90;99.90;;;;;;5001988;28;20041;-73
2021/03/05 07:00:35;;;;;;;38.95;16.83;;;4.00;99.90;;;;;;5016005;28;20162;-74
2021/03/05 07:03:01;;;;;;;35.25;16.20;;;4.00;99.90;;;;;;5024736;28;20045;-73
2021/03/05 07:05:49;;;;;;;40.42;16.45;;;3.90;99.90;;;;;;5023872;28;20047;-75
2021/03/05 07:08:35;;;;;;;42.40;17.60;;;3.90;99.90;;;;;;5025049;28;20037;-76
2021/03/05 07:11:00;;;;;;;41.95;16.33;;;3.90;99.90;;;;;;5026496;28;20033;-75
2021/03/05 07:13:26;;;;;;;36.33;16.70;;;4.00;99.90;;;;;;5024669;28;20575;-75
2021/03/05 07:15:55;;;;;;;34.95;15.40;;;3.90;99.90;;;;;;5024397;28;20065;-74
2021/03/05 07:18:20;;;;;;;39.63;15.18;;;3.90;99.90;;;;;;5026282;28;20040;-75
2021/03/05 07:20:46;;;;;;;36.75;15.75;;;4.00;99.90;;;;;;5026900;28;20099;-75
2021/03/05 07:23:13;;;;;;;38.03;16.65;;;4.00;99.90;;;;;;5023939;28;20560;-75
2021/03/05 07:25:40;;;;;;;38.25;16.20;;;4.00;99.90;;;;;;5024927;28;20401;-75
2021/03/05 07:28:07;;;;;;;36.60;16.42;;;4.00;99.90;;;;;;5025443;28;20033;-74
2021/03/05 07:30:34;;;;;;;40.85;16.88;;;4.00;99.90;;;;;;5024541;28;20037;-75
2021/03/05 07:33:03;;;;;;;41.60;16.60;;;4.10;99.90;;;;;;5021883;28;20702;-75
2021/03/05 07:35:40;;;;;;;38.33;15.13;;;4.10;99.90;;;;;;5020642;28;20037;-74
2021/03/05 07:38:14;;;;;;;38.55;17.85;;;4.10;99.90;;;;;;5008939;28;20619;-75
2021/03/05 07:40:46;;;;;;;36.92;16.73;;;4.10;99.90;;;;;;5009761;28;20068;-75
2021/03/05 07:43:14;;;;;;;43.90;16.73;;;4.20;99.90;;;;;;5032582;28;20127;-75
2021/03/05 07:45:39;;;;;;;39.13;16.70;;;4.10;99.90;;;;;;5023966;28;20037;-75
2021/03/05 07:48:10;;;;;;;39.03;16.45;;;4.10;99.90;;;;;;5024365;28;20088;-75
2021/03/05 07:50:36;;;;;;;41.40;17.45;;;4.10;99.90;;;;;;5004772;28;20041;-75
2021/03/05 07:53:01;;;;;;;40.60;17.63;;;4.10;99.90;;;;;;5006605;28;20095;-75
2021/03/05 07:55:41;;;;;;;36.38;16.55;;;4.10;99.90;;;;;;5027119;28;20170;-75
2021/03/05 07:58:07;;;;;;;40.63;16.30;;;4.10;99.90;;;;;;5025180;28;20498;-74
2021/03/05 08:00:49;;;;;;;39.60;16.45;;;4.20;99.90;;;;;;5024363;28;20049;-75
2021/03/05 08:03:17;;;;;;;38.60;16.90;;;4.20;99.90;;;;;;5024566;28;20140;-75
2021/03/05 08:05:44;;;;;;;39.33;17.02;;;4.30;99.90;;;;;;5026814;28;20115;-75
2021/03/05 08:08:14;;;;;;;40.70;17.30;;;4.30;99.90;;;;;;5026292;28;20361;-76
2021/03/05 08:10:44;;;;;;;43.88;15.40;;;4.20;99.90;;;;;;5027529;28;20577;-75
2021/03/05 08:13:54;;;;;;;37.42;14.93;;;4.30;99.90;;;;;;5024999;28;20053;-75
2021/03/05 08:16:29;;;;;;;46.05;16.30;;;4.20;99.90;;;;;;5025648;28;20044;-75
2021/03/05 08:19:03;;;;;;;;;;;4.20;99.90;;;;;;5025738;28;20045;-75
2021/03/05 08:22:01;;;;;;;40.80;16.02;;;4.30;99.90;;;;;;5028837;28;19936;-75
2021/03/05 08:24:34;;;;;;;36.65;15.45;;;4.20;99.90;;;;;;5014605;28;20519;-75
2021/03/05 08:27:11;;;;;;;34.67;15.85;;;4.20;99.90;;;;;;5021727;28;20120;-75
2021/03/05 08:30:08;;;;;;;38.78;14.75;;;4.20;99.90;;;;;;5029981;28;20053;-75
2021/03/05 08:32:33;;;;;;;37.83;16.02;;;4.30;99.90;;;;;;5018870;28;20029;-76
2021/03/05 08:35:10;;;;;;;34.35;15.07;;;4.40;99.90;;;;;;5024023;28;20039;-76
2021/03/05 08:37:37;;;;;;;33.72;14.50;;;4.40;99.90;;;;;;5019267;28;20030;-76
2021/03/05 08:40:16;;;;;;;33.17;13.95;;;4.40;99.90;;;;;;5018989;28;20048;-76
2021/03/05 08:42:43;;;;;;;37.33;14.07;;;4.40;99.90;;;;;;5027080;28;20069;-76
2021/03/05 08:45:09;;;;;;;42.03;15.57;;;4.40;99.90;;;;;;5029049;28;20033;-76
2021/03/05 08:47:36;;;;;;;36.42;15.07;;;4.40;99.90;;;;;;5026816;28;20115;-75
2021/03/05 08:50:03;;;;;;;39.92;15.00;;;4.40;99.90;;;;;;5021954;28;20343;-76
2021/03/05 08:52:29;;;;;;;32.00;13.70;;;4.30;99.90;;;;;;5031648;28;20044;-76
2021/03/05 08:54:55;;;;;;;33.97;14.75;;;4.30;99.90;;;;;;5028719;28;20045;-76
2021/03/05 08:57:21;;;;;;;33.28;14.27;;;4.40;99.90;;;;;;5024170;28;20214;-75
2021/03/05 08:59:50;;;;;;;45.10;14.00;;;4.30;99.90;;;;;;5022449;28;20247;-76
2021/03/05 09:02:16;;;;;;;35.70;14.88;;;4.30;99.90;;;;;;5025639;28;20041;-75
2021/03/05 09:04:41;;;;;;;37.42;14.60;;;4.40;99.90;;;;;;5025292;28;20559;-76
2021/03/05 09:07:14;;;;;;;32.13;13.57;;;4.50;99.90;;;;;;5026902;28;20463;-76
2021/03/05 09:09:40;;;;;;;29.85;13.32;;;4.50;99.90;;;;;;5029036;28;20116;-76
2021/03/05 09:12:15;;;;;;;33.67;14.23;;;4.50;99.90;;;;;;5031339;28;20128;-76
2021/03/05 09:14:46;;;;;;;29.05;13.18;;;4.50;99.90;;;;;;5029501;28;20103;-76
2021/03/05 09:17:13;;;;;;;30.48;13.93;;;4.40;99.90;;;;;;5031065;28;20037;-76
2021/03/05 09:19:44;;;;;;;32.00;14.75;;;4.40;99.90;;;;;;5020664;28;20041;-75
2021/03/05 09:22:10;;;;;;;31.70;13.55;;;4.40;99.90;;;;;;5034195;28;20047;-76
2021/03/05 09:25:09;;;;;;;35.42;14.43;;;4.50;99.90;;;;;;5019581;28;20033;-76
2021/03/05 09:27:40;;;;;;;32.47;13.38;;;4.60;99.90;;;;;;5016178;28;20038;-77
2021/03/05 09:30:22;;;;;;;29.52;12.07;;;4.40;99.90;;;;;;5010705;28;20042;-76
2021/03/05 09:32:55;;;;;;;31.02;13.18;;;4.50;99.90;;;;;;5029117;28;20489;-77
2021/03/05 09:35:31;;;;;;;29.77;13.18;;;4.60;99.90;;;;;;5021862;28;20424;-78
2021/03/05 09:37:57;;;;;;;33.90;13.68;;;4.70;99.90;;;;;;5027749;28;20120;-77
2021/03/05 09:40:25;;;;;;;29.25;12.52;;;4.80;99.90;;;;;;5031726;28;20033;-76
2021/03/05 09:42:56;;;;;;;36.53;12.68;;;4.60;99.90;;;;;;5017037;28;20556;-77
2021/03/05 09:47:54;;;;;;;31.98;13.23;;;4.80;99.90;;;;;;5023819;28;20204;-83
2021/03/05 09:50:22;;;;;;;27.58;13.27;;;4.80;99.90;;;;;;5034957;28;20041;-83
2021/03/05 09:53:13;;;;;;;31.35;12.90;;;4.90;99.90;;;;;;5034737;28;20152;-84
2021/03/05 09:55:39;;;;;;;29.30;12.57;;;4.90;99.90;;;;;;5048661;28;20033;-78
2021/03/05 09:58:33;;;;;;;27.95;11.98;;;5.00;99.90;;;;;;5042713;28;20037;-81
2021/03/05 10:01:04;;;;;;;27.23;11.90;;;5.00;99.90;;;;;;5026064;28;20452;-78
2021/03/05 10:03:40;;;;;;;29.83;12.38;;;4.80;99.90;;;;;;5045454;28;20056;-79
2021/03/05 10:06:20;;;;;;;35.20;12.27;;;4.90;99.90;;;;;;5032624;28;20026;-78
2021/03/05 10:13:02;;;;;;;29.92;11.02;;;5.10;99.90;;;;;;5036868;28;20037;-80
2021/03/05 10:15:48;;;;;;;24.75;10.65;;;5.00;99.90;;;;;;4968927;28;20034;-78
2021/03/05 10:18:13;;;;;;;29.02;11.77;;;4.90;99.90;;;;;;4962191;28;20515;-81
2021/03/05 10:20:39;;;;;;;27.80;11.48;;;4.90;99.90;;;;;;4992212;28;20041;-81
2021/03/05 10:23:05;;;;;;;27.83;11.65;;;5.20;99.90;;;;;;5026864;28;20535;-83
2021/03/05 10:25:31;;;;;;;27.98;10.13;;;5.20;99.90;;;;;;5024525;28;20029;-81
2021/03/05 10:27:57;;;;;;;35.60;11.80;;;5.10;99.90;;;;;;5004383;28;20489;-82
2021/03/05 10:30:22;;;;;;;32.70;11.63;;;5.10;99.90;;;;;;5033230;28;20148;-80
2021/03/05 10:32:48;;;;;;;27.38;11.50;;;5.10;99.90;;;;;;5028573;28;20097;-79
2021/03/05 10:35:16;;;;;;;23.63;11.20;;;5.10;99.90;;;;;;5032993;28;20084;-81
2021/03/05 10:37:44;;;;;;;34.10;16.40;;;5.10;99.90;;;;;;5014304;28;20037;-80
2021/03/05 10:40:14;;;;;;;27.25;11.93;;;5.10;99.90;;;;;;5018931;28;20036;-81
2021/03/05 10:42:40;;;;;;;24.25;11.07;;;5.20;99.90;;;;;;5045692;28;20018;-80
2021/03/05 10:45:07;;;;;;;23.38;10.45;;;5.30;99.90;;;;;;5043924;28;20037;-81
2021/03/05 10:47:34;;;;;;;24.38;11.10;;;5.30;99.90;;;;;;5034922;28;20060;-82
2021/03/05 10:50:00;;;;;;;34.90;12.13;;;5.30;99.90;;;;;;5042175;28;20037;-82
2021/03/05 10:52:27;;;;;;;27.25;11.65;;;5.40;99.90;;;;;;5041565;28;20049;-82
2021/03/05 10:54:53;;;;;;;25.90;11.95;;;5.30;99.90;;;;;;5039260;28;20036;-82
2021/03/05 10:57:20;;;;;;;35.78;12.98;;;5.30;99.90;;;;;;5036472;28;20030;-81
2021/03/05 10:59:47;;;;;;;28.75;12.85;;;5.40;99.90;;;;;;5020144;28;20191;-81
2021/03/05 11:02:13;;;;;;;34.08;12.25;;;5.40;99.90;;;;;;5024643;28;20106;-83
2021/03/05 11:04:39;;;;;;;22.70;10.63;;;5.50;99.90;;;;;;5031882;28;20032;-81
2021/03/05 11:07:05;;;;;;;27.15;11.23;;;5.50;99.90;;;;;;5050060;28;20017;-79
2021/03/05 11:09:31;;;;;;;26.90;12.98;;;5.50;99.90;;;;;;5041100;28;20117;-80
2021/03/05 11:11:59;;;;;;;31.88;13.63;;;5.40;99.90;;;;;;5030316;28;20052;-81
2021/03/05 11:14:26;;;;;;;27.98;12.20;;;5.30;99.90;;;;;;5036562;28;20061;-81
2021/03/05 11:16:52;;;;;;;23.83;11.23;;;5.30;99.90;;;;;;5030582;28;20033;-81
2021/03/05 11:19:18;;;;;;;30.92;11.95;;;5.30;99.90;;;;;;5020162;28;20093;-81
2021/03/05 11:21:45;;;;;;;42.35;12.95;;;5.20;99.90;;;;;;5028874;28;20457;-82
2021/03/05 11:24:11;;;;;;;28.08;12.68;;;5.20;99.90;;;;;;5032376;28;20100;-81
2021/03/05 11:26:37;;;;;;;26.90;12.50;;;5.20;99.90;;;;;;5033712;28;20741;-81
2021/03/05 11:29:03;;;;;;;26.77;12.32;;;5.10;99.90;;;;;;5027904;28;20039;-81
2021/03/05 11:31:29;;;;;;;27.23;11.85;;;5.10;99.90;;;;;;5030424;28;20017;-81
2021/03/05 11:33:54;;;;;;;26.90;12.80;;;5.10;99.90;;;;;;5014024;28;20021;-80
2021/03/05 11:36:20;;;;;;;27.85;12.07;;;5.10;99.90;;;;;;5033763;28;20037;-79
2021/03/05 11:38:48;;;;;;;27.83;11.90;;;5.10;99.90;;;;;;5039975;28;20237;-79
2021/03/05 11:41:14;;;;;;;27.30;12.25;;;5.20;99.90;;;;;;5038522;28;20033;-77
2021/03/05 11:43:47;;;;;;;33.75;12.35;;;5.40;99.90;;;;;;5034045;28;20044;-80
2021/03/05 11:46:14;;;;;;;30.02;12.60;;;5.40;99.90;;;;;;5037944;28;20560;-79
2021/03/05 11:48:40;;;;;;;28.52;13.27;;;5.30;99.90;;;;;;5038765;28;20025;-80
2021/03/05 11:51:07;;;;;;;28.63;12.00;;;5.30;99.90;;;;;;5036988;28;20022;-79
2021/03/05 11:53:32;;;;;;;29.63;12.75;;;5.30;99.90;;;;;;5040446;28;20113;-77
2021/03/05 11:55:58;;;;;;;23.17;11.98;;;5.20;99.90;;;;;;5043172;28;20049;-79
2021/03/05 11:58:23;;;;;;;28.20;12.07;;;5.20;99.90;;;;;;5038418;28;20037;-78
2021/03/05 12:00:49;;;;;;;29.33;12.90;;;5.30;99.90;;;;;;5026572;28;20038;-80
2021/03/05 12:03:15;;;;;;;40.67;13.40;;;5.30;99.90;;;;;;5031457;28;20026;-80
2021/03/05 12:05:41;;;;;;;28.73;12.60;;;5.20;99.90;;;;;;5031023;28;20045;-79
2021/03/05 12:08:09;;;;;;;27.95;12.13;;;5.30;99.90;;;;;;5011730;28;20030;-79
2021/03/05 12:10:35;;;;;;;32.90;11.82;;;5.20;99.90;;;;;;5015776;28;20026;-80
2021/03/05 12:13:00;;;;;;;25.10;12.00;;;5.20;99.90;;;;;;5041049;28;20117;-78
2021/03/05 12:15:26;;;;;;;28.40;12.68;;;5.30;99.90;;;;;;5034656;28;20441;-79
2021/03/05 12:17:52;;;;;;;28.25;11.93;;;5.40;99.90;;;;;;5035472;28;20068;-79
2021/03/05 12:20:17;;;;;;;28.92;12.00;;;5.50;99.90;;;;;;5036177;28;20084;-77
2021/03/05 12:22:43;;;;;;;27.80;12.02;;;5.70;99.90;;;;;;5033014;28;20065;-78
2021/03/05 12:25:09;;;;;;;23.80;10.98;;;5.60;99.90;;;;;;5028661;28;20033;-78
2021/03/05 12:27:35;;;;;;;25.40;12.10;;;5.40;99.90;;;;;;5034168;28;20528;-77
2021/03/05 12:30:01;;;;;;;25.45;11.60;;;5.60;99.90;;;;;;5026407;28;20045;-79
2021/03/05 12:32:27;;;;;;;26.02;12.10;;;5.50;99.90;;;;;;5028494;28;20131;-78
2021/03/05 12:34:52;;;;;;;22.75;10.73;;;5.70;99.90;;;;;;5035528;28;20047;-79
2021/03/05 12:37:19;;;;;;;29.80;12.13;;;5.70;99.90;;;;;;5043050;28;20032;-79
2021/03/05 12:39:44;;;;;;;28.02;12.80;;;5.80;99.90;;;;;;5036344;28;20037;-80
2021/03/05 12:42:10;;;;;;;26.90;10.95;;;5.90;99.90;;;;;;5025381;28;20037;-78
2021/03/05 12:44:36;;;;;;;22.60;10.88;;;6.00;99.90;;;;;;5041002;28;20024;-78
2021/03/05 12:47:02;;;;;;;26.02;11.20;;;5.80;99.90;;;;;;5032474;28;20753;-78
2021/03/05 12:49:28;;;;;;;27.17;12.75;;;5.80;99.90;;;;;;5034200;28;20047;-78
2021/03/05 12:51:53;;;;;;;24.65;11.70;;;5.90;99.90;;;;;;5031652;28;20038;-78